sensor_id;sensor_type;location;lat;lon;timestamp;temperature;humidity
53599;DHT22;39485;45.702;11.364;2022-11-20T00:01:25;7.90;99.90
53599;DHT22;39485;45.702;11.364;2022-11-20T00:03:52;7.90;99.90
53599;DHT22;39485;45.702;11.364;2022-11-20T00:06:19;7.80;99.90
53599;DHT22;39485;45.702;11.364;2022-11-20T00:08:45;7.80;99.90
53599;DHT22;39485;45.702;11.364;2022-11-20T00:11:14;7.80;99.90
53599;DHT22;39485;45.702;11.364;2022-11-20T00:13:40;7.70;99.90
53599;DHT22;39485;45.702;11.364;2022-11-20T00:16:08;7.70;99.90
53599;DHT22;39485;45.702;11.364;2022-11-20T00:18:37;7.70;99.90
53599;DHT22;39485;45.702;11.364;2022-11-20T00:21:04;7.70;99.90
53599;DHT22;39485;45.702;11.364;2022-11-20T00:23:34;7.60;99.90
53599;DHT22;39485;45.702;11.364;2022-11-20T00:26:06;7.60;99.90
53599;DHT22;39485;45.702;11.364;2022-11-20T00:28:33;7.60;99.90
53599;DHT22;39485;45.702;11.364;2022-11-20T00:31:04;7.60;99.90
53599;DHT22;39485;45.702;11.364;2022-11-20T00:33:31;7.60;99.90
53599;DHT22;39485;45.702;11.364;2022-11-20T00:36:05;7.60;99.90
53599;DHT22;39485;45.702;11.364;2022-11-20T00:38:31;7.50;99.90
53599;DHT22;39485;45.702;11.364;2022-11-20T00:41:06;7.50;99.90
53599;DHT22;39485;45.702;11.364;2022-11-20T00:43:32;7.60;99.90
53599;DHT22;39485;45.702;11.364;2022-11-20T00:45:59;7.50;99.90
53599;DHT22;39485;45.702;11.364;2022-11-20T00:48:25;7.50;99.90
53599;DHT22;39485;45.702;11.364;2022-11-20T00:50:51;7.50;99.90
53599;DHT22;39485;45.702;11.364;2022-11-20T00:53:16;7.50;99.90
53599;DHT22;39485;45.702;11.364;2022-11-20T00:55:42;7.50;99.90
53599;DHT22;39485;45.702;11.364;2022-11-20T00:58:08;7.50;99.90
53599;DHT22;39485;45.702;11.364;2022-11-20T01:00:34;7.40;99.90
53599;DHT22;39485;45.702;11.364;2022-11-20T01:03:00;7.40;99.90
53599;DHT22;39485;45.702;11.364;2022-11-20T01:05:27;7.40;99.90
53599;DHT22;39485;45.702;11.364;2022-11-20T01:07:53;7.40;99.90
53599;DHT22;39485;45.702;11.364;2022-11-20T01:10:29;7.40;99.90
53599;DHT22;39485;45.702;11.364;2022-11-20T01:12:54;7.30;99.90
53599;DHT22;39485;45.702;11.364;2022-11-20T01:15:52;7.30;99.90
53599;DHT22;39485;45.702;11.364;2022-11-20T01:18:20;7.30;99.90
53599;DHT22;39485;45.702;11.364;2022-11-20T01:20:49;7.20;99.90
53599;DHT22;39485;45.702;11.364;2022-11-20T01:23:15;7.20;99.90
53599;DHT22;39485;45.702;11.364;2022-11-20T01:25:40;7.20;99.90
53599;DHT22;39485;45.702;11.364;2022-11-20T01:28:06;7.20;99.90
53599;DHT22;39485;45.702;11.364;2022-11-20T01:30:32;7.20;99.90
53599;DHT22;39485;45.702;11.364;2022-11-20T01:32:57;7.10;99.90
53599;DHT22;39485;45.702;11.364;2022-11-20T01:35:23;7.10;99.90
53599;DHT22;39485;45.702;11.364;2022-11-20T01:37:50;7.10;99.90
53599;DHT22;39485;45.702;11.364;2022-11-20T01:40:16;7.10;99.90
53599;DHT22;39485;45.702;11.364;2022-11-20T01:43:11;7.10;99.90
53599;DHT22;39485;45.702;11.364;2022-11-20T01:46:19;7.10;99.90
53599;DHT22;39485;45.702;11.364;2022-11-20T01:51:32;7.00;99.90
53599;DHT22;39485;45.702;11.364;2022-11-20T01:54:02;7.00;99.90
53599;DHT22;39485;45.702;11.364;2022-11-20T01:56:31;7.00;99.90
53599;DHT22;39485;45.702;11.364;2022-11-20T01:59:01;7.00;99.90
53599;DHT22;39485;45.702;11.364;2022-11-20T02:01:29;6.90;99.90
53599;DHT22;39485;45.702;11.364;2022-11-20T02:03:55;7.00;99.90
53599;DHT22;39485;45.702;11.364;2022-11-20T02:09:13;7.00;99.90
53599;DHT22;39485;45.702;11.364;2022-11-20T02:11:39;7.00;99.90
53599;DHT22;39485;45.702;11.364;2022-11-20T02:14:08;7.00;99.90
53599;DHT22;39485;45.702;11.364;2022-11-20T02:16:39;6.90;99.90
53599;DHT22;39485;45.702;11.364;2022-11-20T02:19:17;6.90;99.90
53599;DHT22;39485;45.702;11.364;2022-11-20T02:22:04;6.90;99.90
53599;DHT22;39485;45.702;11.364;2022-11-20T02:24:31;6.90;99.90
53599;DHT22;39485;45.702;11.364;2022-11-20T02:27:18;6.90;99.90
53599;DHT22;39485;45.702;11.364;2022-11-20T02:30:01;6.90;99.90
53599;DHT22;39485;45.702;11.364;2022-11-20T02:32:33;6.90;99.90
53599;DHT22;39485;45.702;11.364;2022-11-20T02:35:35;6.90;99.90
53599;DHT22;39485;45.702;11.364;2022-11-20T02:37:57;6.80;99.90
53599;DHT22;39485;45.702;11.364;2022-11-20T02:40:24;6.80;99.90
53599;DHT22;39485;45.702;11.364;2022-11-20T02:42:53;6.70;99.90
53599;DHT22;39485;45.702;11.364;2022-11-20T02:45:19;6.70;99.90
53599;DHT22;39485;45.702;11.364;2022-11-20T02:47:44;6.70;99.90
53599;DHT22;39485;45.702;11.364;2022-11-20T02:50:10;6.70;99.90
53599;DHT22;39485;45.702;11.364;2022-11-20T02:52:36;6.60;99.90
53599;DHT22;39485;45.702;11.364;2022-11-20T02:55:02;6.60;99.90
53599;DHT22;39485;45.702;11.364;2022-11-20T02:57:28;6.60;99.90
53599;DHT22;39485;45.702;11.364;2022-11-20T02:59:54;6.60;99.90
53599;DHT22;39485;45.702;11.364;2022-11-20T03:02:19;6.60;99.90
53599;DHT22;39485;45.702;11.364;2022-11-20T03:04:46;6.50;99.90
53599;DHT22;39485;45.702;11.364;2022-11-20T03:07:11;6.50;99.90
53599;DHT22;39485;45.702;11.364;2022-11-20T03:09:43;6.50;99.90
53599;DHT22;39485;45.702;11.364;2022-11-20T03:12:11;6.50;99.90
53599;DHT22;39485;45.702;11.364;2022-11-20T03:14:37;6.40;99.90
53599;DHT22;39485;45.702;11.364;2022-11-20T03:17:03;6.40;99.90
53599;DHT22;39485;45.702;11.364;2022-11-20T03:19:29;6.30;99.90
53599;DHT22;39485;45.702;11.364;2022-11-20T03:21:54;6.30;99.90
53599;DHT22;39485;45.702;11.364;2022-11-20T03:24:20;6.30;99.90
53599;DHT22;39485;45.702;11.364;2022-11-20T03:26:51;6.30;99.90
53599;DHT22;39485;45.702;11.364;2022-11-20T03:29:17;6.40;99.90
53599;DHT22;39485;45.702;11.364;2022-11-20T03:31:42;6.30;99.90
53599;DHT22;39485;45.702;11.364;2022-11-20T03:34:10;6.40;99.90
53599;DHT22;39485;45.702;11.364;2022-11-20T03:36:41;6.30;99.90
53599;DHT22;39485;45.702;11.364;2022-11-20T03:39:07;6.30;99.90
53599;DHT22;39485;45.702;11.364;2022-11-20T03:41:40;6.30;99.90
53599;DHT22;39485;45.702;11.364;2022-11-20T03:44:10;6.30;99.90
53599;DHT22;39485;45.702;11.364;2022-11-20T03:46:36;6.30;99.90
53599;DHT22;39485;45.702;11.364;2022-11-20T03:49:02;6.30;99.90
53599;DHT22;39485;45.702;11.364;2022-11-20T03:51:30;6.20;99.90
53599;DHT22;39485;45.702;11.364;2022-11-20T03:54:02;6.20;99.90
53599;DHT22;39485;45.702;11.364;2022-11-20T03:56:30;6.20;99.90
53599;DHT22;39485;45.702;11.364;2022-11-20T03:59:00;6.20;99.90
53599;DHT22;39485;45.702;11.364;2022-11-20T04:01:28;6.20;99.90
53599;DHT22;39485;45.702;11.364;2022-11-20T04:03:56;6.20;99.90
53599;DHT22;39485;45.702;11.364;2022-11-20T04:06:29;6.20;99.90
53599;DHT22;39485;45.702;11.364;2022-11-20T04:08:57;6.20;99.90
53599;DHT22;39485;45.702;11.364;2022-11-20T04:11:24;6.10;99.90
53599;DHT22;39485;45.702;11.364;2022-11-20T04:13:55;6.10;99.90
53599;DHT22;39485;45.702;11.364;2022-11-20T04:16:25;6.10;99.90
53599;DHT22;39485;45.702;11.364;2022-11-20T04:18:56;6.10;99.90
53599;DHT22;39485;45.702;11.364;2022-11-20T04:21:22;6.00;99.90
53599;DHT22;39485;45.702;11.364;2022-11-20T04:23:50;6.00;99.90
53599;DHT22;39485;45.702;11.364;2022-11-20T04:26:18;6.00;99.90
53599;DHT22;39485;45.702;11.364;2022-11-20T04:28:44;6.00;99.90
53599;DHT22;39485;45.702;11.364;2022-11-20T04:31:15;6.00;99.90
53599;DHT22;39485;45.702;11.364;2022-11-20T04:33:41;6.00;99.90
53599;DHT22;39485;45.702;11.364;2022-11-20T04:36:12;6.00;99.90
53599;DHT22;39485;45.702;11.364;2022-11-20T04:38:39;5.90;99.90
53599;DHT22;39485;45.702;11.364;2022-11-20T04:41:07;5.90;99.90
53599;DHT22;39485;45.702;11.364;2022-11-20T04:43:34;5.90;99.90
53599;DHT22;39485;45.702;11.364;2022-11-20T04:46:00;5.90;99.90
53599;DHT22;39485;45.702;11.364;2022-11-20T04:48:27;5.90;99.90
53599;DHT22;39485;45.702;11.364;2022-11-20T04:50:54;5.90;99.90
53599;DHT22;39485;45.702;11.364;2022-11-20T04:53:20;5.80;99.90
53599;DHT22;39485;45.702;11.364;2022-11-20T04:55:47;5.80;99.90
53599;DHT22;39485;45.702;11.364;2022-11-20T04:58:13;5.80;99.90
53599;DHT22;39485;45.702;11.364;2022-11-20T05:00:41;5.80;99.90
53599;DHT22;39485;45.702;11.364;2022-11-20T05:03:07;5.80;99.90
53599;DHT22;39485;45.702;11.364;2022-11-20T05:05:37;5.80;99.90
53599;DHT22;39485;45.702;11.364;2022-11-20T05:08:12;5.80;99.90
53599;DHT22;39485;45.702;11.364;2022-11-20T05:10:44;5.80;99.90
53599;DHT22;39485;45.702;11.364;2022-11-20T05:13:09;5.70;99.90
53599;DHT22;39485;45.702;11.364;2022-11-20T05:15:37;5.70;99.90
53599;DHT22;39485;45.702;11.364;2022-11-20T05:18:03;5.70;99.90
53599;DHT22;39485;45.702;11.364;2022-11-20T05:20:29;5.70;99.90
53599;DHT22;39485;45.702;11.364;2022-11-20T05:22:57;5.70;99.90
53599;DHT22;39485;45.702;11.364;2022-11-20T05:25:23;5.70;99.90
53599;DHT22;39485;45.702;11.364;2022-11-20T05:27:54;5.70;99.90
53599;DHT22;39485;45.702;11.364;2022-11-20T05:30:22;5.80;99.90
53599;DHT22;39485;45.702;11.364;2022-11-20T05:33:00;5.80;99.90
53599;DHT22;39485;45.702;11.364;2022-11-20T05:35:31;5.80;99.90
53599;DHT22;39485;45.702;11.364;2022-11-20T05:37:57;5.80;99.90
53599;DHT22;39485;45.702;11.364;2022-11-20T05:40:25;5.80;99.90
53599;DHT22;39485;45.702;11.364;2022-11-20T05:43:00;5.70;99.90
53599;DHT22;39485;45.702;11.364;2022-11-20T05:45:26;5.70;99.90
53599;DHT22;39485;45.702;11.364;2022-11-20T05:47:52;5.70;99.90
53599;DHT22;39485;45.702;11.364;2022-11-20T05:50:18;5.60;99.90
53599;DHT22;39485;45.702;11.364;2022-11-20T05:52:44;5.70;99.90
53599;DHT22;39485;45.702;11.364;2022-11-20T05:55:10;5.70;99.90
53599;DHT22;39485;45.702;11.364;2022-11-20T05:57:36;5.60;99.90
53599;DHT22;39485;45.702;11.364;2022-11-20T06:00:03;5.60;99.90
53599;DHT22;39485;45.702;11.364;2022-11-20T06:02:29;5.60;99.90
53599;DHT22;39485;45.702;11.364;2022-11-20T06:04:55;5.50;99.90
53599;DHT22;39485;45.702;11.364;2022-11-20T06:07:20;5.50;99.90
53599;DHT22;39485;45.702;11.364;2022-11-20T06:09:46;5.50;99.90
53599;DHT22;39485;45.702;11.364;2022-11-20T06:12:12;5.40;99.90
53599;DHT22;39485;45.702;11.364;2022-11-20T06:14:37;5.50;99.90
53599;DHT22;39485;45.702;11.364;2022-11-20T06:17:03;5.40;99.90
53599;DHT22;39485;45.702;11.364;2022-11-20T06:19:29;5.50;99.90
53599;DHT22;39485;45.702;11.364;2022-11-20T06:21:54;5.50;99.90
53599;DHT22;39485;45.702;11.364;2022-11-20T06:24:20;5.40;99.90
53599;DHT22;39485;45.702;11.364;2022-11-20T06:26:46;5.50;99.90
53599;DHT22;39485;45.702;11.364;2022-11-20T06:29:12;5.50;99.90
53599;DHT22;39485;45.702;11.364;2022-11-20T06:31:37;5.50;99.90
53599;DHT22;39485;45.702;11.364;2022-11-20T06:34:04;5.50;99.90
53599;DHT22;39485;45.702;11.364;2022-11-20T06:36:34;5.50;99.90
53599;DHT22;39485;45.702;11.364;2022-11-20T06:39:00;5.50;99.90
53599;DHT22;39485;45.702;11.364;2022-11-20T06:41:26;5.50;99.90
53599;DHT22;39485;45.702;11.364;2022-11-20T06:43:53;5.50;99.90
53599;DHT22;39485;45.702;11.364;2022-11-20T06:46:19;5.50;99.90
53599;DHT22;39485;45.702;11.364;2022-11-20T06:48:46;5.40;99.90
53599;DHT22;39485;45.702;11.364;2022-11-20T06:51:12;5.40;99.90
53599;DHT22;39485;45.702;11.364;2022-11-20T06:53:38;5.40;99.90
53599;DHT22;39485;45.702;11.364;2022-11-20T06:56:07;5.40;99.90
53599;DHT22;39485;45.702;11.364;2022-11-20T06:58:36;5.40;99.90
53599;DHT22;39485;45.702;11.364;2022-11-20T07:01:13;5.40;99.90
53599;DHT22;39485;45.702;11.364;2022-11-20T07:03:40;5.40;99.90
53599;DHT22;39485;45.702;11.364;2022-11-20T07:06:06;5.40;99.90
53599;DHT22;39485;45.702;11.364;2022-11-20T07:08:33;5.40;99.90
53599;DHT22;39485;45.702;11.364;2022-11-20T07:11:04;5.50;99.90
53599;DHT22;39485;45.702;11.364;2022-11-20T07:13:31;5.50;99.90
53599;DHT22;39485;45.702;11.364;2022-11-20T07:16:01;5.50;99.90
53599;DHT22;39485;45.702;11.364;2022-11-20T07:18:28;5.60;99.90
53599;DHT22;39485;45.702;11.364;2022-11-20T07:20:54;5.70;99.90
53599;DHT22;39485;45.702;11.364;2022-11-20T07:23:19;5.70;99.90
53599;DHT22;39485;45.702;11.364;2022-11-20T07:25:45;5.80;99.90
53599;DHT22;39485;45.702;11.364;2022-11-20T07:28:11;5.90;99.90
53599;DHT22;39485;45.702;11.364;2022-11-20T07:31:09;6.00;99.90
53599;DHT22;39485;45.702;11.364;2022-11-20T07:33:41;6.00;99.90
53599;DHT22;39485;45.702;11.364;2022-11-20T07:36:07;6.10;99.90
53599;DHT22;39485;45.702;11.364;2022-11-20T08:00:14;6.80;99.90
53599;DHT22;39485;45.702;11.364;2022-11-20T08:02:42;6.90;99.90
53599;DHT22;39485;45.702;11.364;2022-11-20T08:05:14;7.00;99.90
53599;DHT22;39485;45.702;11.364;2022-11-20T08:07:43;7.00;99.90
53599;DHT22;39485;45.702;11.364;2022-11-20T08:10:28;7.20;99.90
53599;DHT22;39485;45.702;11.364;2022-11-20T08:12:59;7.20;99.90
53599;DHT22;39485;45.702;11.364;2022-11-20T08:15:48;7.30;99.90
53599;DHT22;39485;45.702;11.364;2022-11-20T08:18:15;7.40;99.90
53599;DHT22;39485;45.702;11.364;2022-11-20T08:20:45;7.40;99.90
53599;DHT22;39485;45.702;11.364;2022-11-20T08:23:18;7.50;99.90
53599;DHT22;39485;45.702;11.364;2022-11-20T08:26:11;7.60;99.90
53599;DHT22;39485;45.702;11.364;2022-11-20T08:28:42;7.60;99.90
53599;DHT22;39485;45.702;11.364;2022-11-20T08:31:08;7.70;99.90
53599;DHT22;39485;45.702;11.364;2022-11-20T08:33:36;7.80;99.90
53599;DHT22;39485;45.702;11.364;2022-11-20T08:36:03;7.90;99.90
53599;DHT22;39485;45.702;11.364;2022-11-20T08:38:30;8.00;99.90
53599;DHT22;39485;45.702;11.364;2022-11-20T08:41:00;8.00;99.90
53599;DHT22;39485;45.702;11.364;2022-11-20T08:43:44;8.10;99.90
53599;DHT22;39485;45.702;11.364;2022-11-20T08:46:32;8.20;99.90
53599;DHT22;39485;45.702;11.364;2022-11-20T08:49:22;8.20;99.90
53599;DHT22;39485;45.702;11.364;2022-11-20T08:51:48;8.30;99.90
53599;DHT22;39485;45.702;11.364;2022-11-20T08:54:17;8.40;99.90
53599;DHT22;39485;45.702;11.364;2022-11-20T08:56:45;8.50;99.90
53599;DHT22;39485;45.702;11.364;2022-11-20T09:02:25;8.60;99.90
53599;DHT22;39485;45.702;11.364;2022-11-20T09:04:51;8.70;99.90
53599;DHT22;39485;45.702;11.364;2022-11-20T09:07:18;8.70;99.90
53599;DHT22;39485;45.702;11.364;2022-11-20T09:09:47;8.80;99.90
53599;DHT22;39485;45.702;11.364;2022-11-20T09:12:13;8.90;99.90
53599;DHT22;39485;45.702;11.364;2022-11-20T09:14:39;8.90;99.90
53599;DHT22;39485;45.702;11.364;2022-11-20T09:21:09;9.00;99.90
53599;DHT22;39485;45.702;11.364;2022-11-20T09:23:37;9.10;99.90
53599;DHT22;39485;45.702;11.364;2022-11-20T09:26:10;9.10;99.90
53599;DHT22;39485;45.702;11.364;2022-11-20T09:28:37;9.20;99.90
53599;DHT22;39485;45.702;11.364;2022-11-20T09:31:07;9.30;99.90
53599;DHT22;39485;45.702;11.364;2022-11-20T09:33:35;9.30;99.90
53599;DHT22;39485;45.702;11.364;2022-11-20T09:36:01;9.30;99.90
53599;DHT22;39485;45.702;11.364;2022-11-20T09:38:28;9.40;99.90
53599;DHT22;39485;45.702;11.364;2022-11-20T09:44:47;9.50;99.90
53599;DHT22;39485;45.702;11.364;2022-11-20T09:50:07;9.60;99.90
53599;DHT22;39485;45.702;11.364;2022-11-20T09:53:09;9.60;99.90
53599;DHT22;39485;45.702;11.364;2022-11-20T09:55:38;9.60;99.90
53599;DHT22;39485;45.702;11.364;2022-11-20T09:58:35;9.70;99.90
53599;DHT22;39485;45.702;11.364;2022-11-20T10:01:32;9.80;99.90
53599;DHT22;39485;45.702;11.364;2022-11-20T10:04:18;9.90;99.90
53599;DHT22;39485;45.702;11.364;2022-11-20T10:09:35;10.00;99.90
53599;DHT22;39485;45.702;11.364;2022-11-20T10:12:31;10.00;99.90
53599;DHT22;39485;45.702;11.364;2022-11-20T10:21:08;10.30;99.90
53599;DHT22;39485;45.702;11.364;2022-11-20T10:29:08;10.40;99.90
53599;DHT22;39485;45.702;11.364;2022-11-20T10:31:39;10.50;99.90
53599;DHT22;39485;45.702;11.364;2022-11-20T10:34:18;10.50;99.90
53599;DHT22;39485;45.702;11.364;2022-11-20T10:36:58;10.60;99.90
53599;DHT22;39485;45.702;11.364;2022-11-20T10:39:42;10.70;99.90
53599;DHT22;39485;45.702;11.364;2022-11-20T10:42:26;10.70;99.90
53599;DHT22;39485;45.702;11.364;2022-11-20T10:45:02;10.70;99.90
53599;DHT22;39485;45.702;11.364;2022-11-20T10:47:34;10.80;99.90
53599;DHT22;39485;45.702;11.364;2022-11-20T10:50:08;10.80;99.90
53599;DHT22;39485;45.702;11.364;2022-11-20T11:01:19;11.00;99.90
53599;DHT22;39485;45.702;11.364;2022-11-20T11:03:50;11.00;99.90
53599;DHT22;39485;45.702;11.364;2022-11-20T11:06:39;11.00;99.90
53599;DHT22;39485;45.702;11.364;2022-11-20T11:09:13;11.10;99.90
53599;DHT22;39485;45.702;11.364;2022-11-20T11:11:41;11.10;99.90
53599;DHT22;39485;45.702;11.364;2022-11-20T11:14:13;11.20;99.90
53599;DHT22;39485;45.702;11.364;2022-11-20T12:09:08;11.80;99.90
53599;DHT22;39485;45.702;11.364;2022-11-20T12:11:49;11.80;99.90
53599;DHT22;39485;45.702;11.364;2022-11-20T12:14:20;11.90;99.90
53599;DHT22;39485;45.702;11.364;2022-11-20T12:16:50;11.90;99.90
53599;DHT22;39485;45.702;11.364;2022-11-20T12:19:19;11.90;99.90
53599;DHT22;39485;45.702;11.364;2022-11-20T12:25:16;12.00;99.90
53599;DHT22;39485;45.702;11.364;2022-11-20T12:30:19;12.00;99.90
53599;DHT22;39485;45.702;11.364;2022-11-20T12:36:12;12.00;99.90
53599;DHT22;39485;45.702;11.364;2022-11-20T12:45:12;11.90;99.90
53599;DHT22;39485;45.702;11.364;2022-11-20T12:47:48;11.90;99.90
53599;DHT22;39485;45.702;11.364;2022-11-20T13:01:52;11.80;99.90
53599;DHT22;39485;45.702;11.364;2022-11-20T13:06:54;11.80;99.90
53599;DHT22;39485;45.702;11.364;2022-11-20T13:09:22;11.80;99.90
53599;DHT22;39485;45.702;11.364;2022-11-20T13:12:11;11.80;99.90
53599;DHT22;39485;45.702;11.364;2022-11-20T13:14:46;11.80;99.90
53599;DHT22;39485;45.702;11.364;2022-11-20T13:19:38;11.80;99.90
53599;DHT22;39485;45.702;11.364;2022-11-20T13:22:04;11.70;99.90
53599;DHT22;39485;45.702;11.364;2022-11-20T13:24:31;11.70;99.90
53599;DHT22;39485;45.702;11.364;2022-11-20T13:29:42;11.60;99.90
53599;DHT22;39485;45.702;11.364;2022-11-20T13:32:17;11.50;99.90
53599;DHT22;39485;45.702;11.364;2022-11-20T13:45:21;11.40;99.90
53599;DHT22;39485;45.702;11.364;2022-11-20T13:47:51;11.40;99.90
53599;DHT22;39485;45.702;11.364;2022-11-20T13:50:18;11.30;99.90
53599;DHT22;39485;45.702;11.364;2022-11-20T13:56:05;11.30;99.90
53599;DHT22;39485;45.702;11.364;2022-11-20T13:59:07;11.20;99.90
53599;DHT22;39485;45.702;11.364;2022-11-20T14:01:31;11.20;99.90
53599;DHT22;39485;45.702;11.364;2022-11-20T14:03:58;11.20;99.90
53599;DHT22;39485;45.702;11.364;2022-11-20T14:06:32;11.20;99.90
53599;DHT22;39485;45.702;11.364;2022-11-20T14:09:00;11.10;99.90
53599;DHT22;39485;45.702;11.364;2022-11-20T14:11:28;11.10;99.90
53599;DHT22;39485;45.702;11.364;2022-11-20T14:14:17;11.00;99.90
53599;DHT22;39485;45.702;11.364;2022-11-20T14:16:43;11.00;99.90
53599;DHT22;39485;45.702;11.364;2022-11-20T14:19:29;10.90;99.90
53599;DHT22;39485;45.702;11.364;2022-11-20T14:22:22;10.90;99.90
53599;DHT22;39485;45.702;11.364;2022-11-20T14:27:34;10.70;99.90
53599;DHT22;39485;45.702;11.364;2022-11-20T16:32:24;8.30;99.90
53599;DHT22;39485;45.702;11.364;2022-11-20T16:34:50;8.30;99.90
53599;DHT22;39485;45.702;11.364;2022-11-20T16:37:18;8.40;99.90
53599;DHT22;39485;45.702;11.364;2022-11-20T16:39:44;8.40;99.90
53599;DHT22;39485;45.702;11.364;2022-11-20T16:42:11;8.40;99.90
53599;DHT22;39485;45.702;11.364;2022-11-20T16:44:38;8.40;99.90
53599;DHT22;39485;45.702;11.364;2022-11-20T16:47:04;8.40;99.90
53599;DHT22;39485;45.702;11.364;2022-11-20T16:49:32;8.40;99.90
53599;DHT22;39485;45.702;11.364;2022-11-20T16:51:58;8.40;99.90
53599;DHT22;39485;45.702;11.364;2022-11-20T16:54:30;8.40;99.90
53599;DHT22;39485;45.702;11.364;2022-11-20T16:56:56;8.40;99.90
53599;DHT22;39485;45.702;11.364;2022-11-20T16:59:22;8.40;99.90
53599;DHT22;39485;45.702;11.364;2022-11-20T17:01:49;8.40;99.90
53599;DHT22;39485;45.702;11.364;2022-11-20T17:04:17;8.30;99.90
53599;DHT22;39485;45.702;11.364;2022-11-20T17:06:43;8.30;99.90
53599;DHT22;39485;45.702;11.364;2022-11-20T17:09:11;8.30;99.90
53599;DHT22;39485;45.702;11.364;2022-11-20T17:11:38;8.30;99.90
53599;DHT22;39485;45.702;11.364;2022-11-20T17:14:06;8.20;99.90
53599;DHT22;39485;45.702;11.364;2022-11-20T17:16:35;8.30;99.90
53599;DHT22;39485;45.702;11.364;2022-11-20T17:19:02;8.20;99.90
53599;DHT22;39485;45.702;11.364;2022-11-20T17:21:29;8.20;99.90
53599;DHT22;39485;45.702;11.364;2022-11-20T17:23:58;8.20;99.90
53599;DHT22;39485;45.702;11.364;2022-11-20T17:26:24;8.20;99.90
53599;DHT22;39485;45.702;11.364;2022-11-20T17:29:02;8.20;99.90
53599;DHT22;39485;45.702;11.364;2022-11-20T17:31:29;8.20;99.90
53599;DHT22;39485;45.702;11.364;2022-11-20T17:33:58;8.20;99.90
53599;DHT22;39485;45.702;11.364;2022-11-20T17:36:27;8.20;99.90
53599;DHT22;39485;45.702;11.364;2022-11-20T17:38:54;8.20;99.90
53599;DHT22;39485;45.702;11.364;2022-11-20T17:41:25;8.20;99.90
53599;DHT22;39485;45.702;11.364;2022-11-20T17:43:56;8.10;99.90
53599;DHT22;39485;45.702;11.364;2022-11-20T17:46:25;8.10;99.90
53599;DHT22;39485;45.702;11.364;2022-11-20T17:48:52;8.10;99.90
53599;DHT22;39485;45.702;11.364;2022-11-20T17:51:26;8.10;99.90
53599;DHT22;39485;45.702;11.364;2022-11-20T17:54:00;8.10;99.90
53599;DHT22;39485;45.702;11.364;2022-11-20T17:56:30;8.00;99.90
53599;DHT22;39485;45.702;11.364;2022-11-20T17:59:16;8.00;99.90
53599;DHT22;39485;45.702;11.364;2022-11-20T18:01:44;8.00;99.90
53599;DHT22;39485;45.702;11.364;2022-11-20T18:04:10;8.00;99.90
53599;DHT22;39485;45.702;11.364;2022-11-20T18:06:38;7.90;99.90
53599;DHT22;39485;45.702;11.364;2022-11-20T18:09:05;8.00;99.90
53599;DHT22;39485;45.702;11.364;2022-11-20T18:11:33;8.00;99.90
53599;DHT22;39485;45.702;11.364;2022-11-20T18:14:03;8.00;99.90
53599;DHT22;39485;45.702;11.364;2022-11-20T18:16:52;8.00;99.90
53599;DHT22;39485;45.702;11.364;2022-11-20T18:19:26;8.00;99.90
53599;DHT22;39485;45.702;11.364;2022-11-20T18:21:54;8.00;99.90
53599;DHT22;39485;45.702;11.364;2022-11-20T18:24:20;8.00;99.90
53599;DHT22;39485;45.702;11.364;2022-11-20T18:26:47;8.00;99.90
53599;DHT22;39485;45.702;11.364;2022-11-20T18:29:15;8.00;99.90
53599;DHT22;39485;45.702;11.364;2022-11-20T18:31:42;8.00;99.90
53599;DHT22;39485;45.702;11.364;2022-11-20T18:34:08;8.00;99.90
53599;DHT22;39485;45.702;11.364;2022-11-20T18:36:38;8.10;99.90
53599;DHT22;39485;45.702;11.364;2022-11-20T18:39:04;8.00;99.90
53599;DHT22;39485;45.702;11.364;2022-11-20T18:41:31;8.00;99.90
53599;DHT22;39485;45.702;11.364;2022-11-20T18:44:18;8.00;99.90
53599;DHT22;39485;45.702;11.364;2022-11-20T18:47:04;8.00;99.90
53599;DHT22;39485;45.702;11.364;2022-11-20T18:49:32;8.00;99.90
53599;DHT22;39485;45.702;11.364;2022-11-20T18:52:13;8.00;99.90
53599;DHT22;39485;45.702;11.364;2022-11-20T18:54:41;8.00;99.90
53599;DHT22;39485;45.702;11.364;2022-11-20T18:57:07;7.90;99.90
53599;DHT22;39485;45.702;11.364;2022-11-20T18:59:35;7.90;99.90
53599;DHT22;39485;45.702;11.364;2022-11-20T19:02:02;7.90;99.90
53599;DHT22;39485;45.702;11.364;2022-11-20T19:04:32;7.90;99.90
53599;DHT22;39485;45.702;11.364;2022-11-20T19:07:01;7.90;99.90
53599;DHT22;39485;45.702;11.364;2022-11-20T19:09:27;7.80;99.90
53599;DHT22;39485;45.702;11.364;2022-11-20T19:11:58;7.80;99.90
53599;DHT22;39485;45.702;11.364;2022-11-20T19:14:24;7.80;99.90
53599;DHT22;39485;45.702;11.364;2022-11-20T19:16:51;7.70;99.90
53599;DHT22;39485;45.702;11.364;2022-11-20T19:19:20;7.70;99.90
53599;DHT22;39485;45.702;11.364;2022-11-20T19:21:48;7.70;99.90
53599;DHT22;39485;45.702;11.364;2022-11-20T19:24:14;7.60;99.90
53599;DHT22;39485;45.702;11.364;2022-11-20T19:26:43;7.60;99.90
53599;DHT22;39485;45.702;11.364;2022-11-20T19:29:14;7.60;99.90
53599;DHT22;39485;45.702;11.364;2022-11-20T19:31:41;7.50;99.90
53599;DHT22;39485;45.702;11.364;2022-11-20T19:34:08;7.50;99.90
53599;DHT22;39485;45.702;11.364;2022-11-20T19:36:36;7.50;99.90
53599;DHT22;39485;45.702;11.364;2022-11-20T19:39:05;7.50;99.90
53599;DHT22;39485;45.702;11.364;2022-11-20T19:41:35;7.50;99.90
53599;DHT22;39485;45.702;11.364;2022-11-20T19:44:03;7.40;99.90
53599;DHT22;39485;45.702;11.364;2022-11-20T19:46:33;7.40;99.90
53599;DHT22;39485;45.702;11.364;2022-11-20T19:49:06;7.40;99.90
53599;DHT22;39485;45.702;11.364;2022-11-20T19:51:36;7.40;99.90
53599;DHT22;39485;45.702;11.364;2022-11-20T19:54:06;7.30;99.90
53599;DHT22;39485;45.702;11.364;2022-11-20T19:56:33;7.30;99.90
53599;DHT22;39485;45.702;11.364;2022-11-20T19:59:00;7.30;99.90
53599;DHT22;39485;45.702;11.364;2022-11-20T20:01:28;7.30;99.90
53599;DHT22;39485;45.702;11.364;2022-11-20T20:03:55;7.20;99.90
53599;DHT22;39485;45.702;11.364;2022-11-20T20:06:25;7.20;99.90
53599;DHT22;39485;45.702;11.364;2022-11-20T20:09:06;7.20;99.90
53599;DHT22;39485;45.702;11.364;2022-11-20T20:11:38;7.20;99.90
53599;DHT22;39485;45.702;11.364;2022-11-20T20:14:09;7.10;99.90
53599;DHT22;39485;45.702;11.364;2022-11-20T20:16:41;7.20;99.90
53599;DHT22;39485;45.702;11.364;2022-11-20T20:19:12;7.10;99.90
53599;DHT22;39485;45.702;11.364;2022-11-20T20:21:38;7.20;99.90
53599;DHT22;39485;45.702;11.364;2022-11-20T20:24:11;7.20;99.90
53599;DHT22;39485;45.702;11.364;2022-11-20T20:26:39;7.20;99.90
53599;DHT22;39485;45.702;11.364;2022-11-20T20:29:05;7.20;99.90
53599;DHT22;39485;45.702;11.364;2022-11-20T20:31:31;7.20;99.90
53599;DHT22;39485;45.702;11.364;2022-11-20T20:34:02;7.20;99.90
53599;DHT22;39485;45.702;11.364;2022-11-20T20:36:30;7.20;99.90
53599;DHT22;39485;45.702;11.364;2022-11-20T20:38:57;7.20;99.90